Time;durP1;ratioP1;P1;durP2;ratioP2;P2;SDS_P1;SDS_P2;PMS_P1;PMS_P2;Temp;Humidity;BMP_temperature;BMP_pressure;BME280_temperature;BME280_humidity;BME280_pressure;Samples;Min_cycle;Max_cycle;Signal;HPM_P1;HPM_P2
2023/07/07 00:01:23;;;;;;;6.43;4.30;;;17.60;99.90;;;;;;5096698;28;20207;-58
2023/07/07 00:03:49;;;;;;;4.77;4.00;;;17.60;99.90;;;;;;5094893;28;20171;-57
2023/07/07 00:06:15;;;;;;;7.70;4.47;;;17.50;99.90;;;;;;5096517;28;20203;-55
2023/07/07 00:08:40;;;;;;;5.17;4.20;;;17.50;99.90;;;;;;5096175;28;20228;-55
2023/07/07 00:11:06;;;;;;;7.87;5.03;;;17.40;99.90;;;;;;5094865;28;20175;-55
2023/07/07 00:13:32;;;;;;;5.60;5.00;;;17.40;99.90;;;;;;5095527;28;20547;-56
2023/07/07 00:15:59;;;;;;;5.20;4.77;;;17.40;99.90;;;;;;5094265;28;20183;-57
2023/07/07 00:18:28;;;;;;;6.00;4.33;;;17.40;99.90;;;;;;5095464;28;20665;-55
2023/07/07 00:20:58;;;;;;;8.40;4.83;;;17.30;99.90;;;;;;5093958;28;20439;-56
2023/07/07 00:23:25;;;;;;;4.63;4.23;;;17.30;99.90;;;;;;5093146;28;20578;-55
2023/07/07 00:26:01;;;;;;;5.03;4.57;;;17.30;99.90;;;;;;5093310;28;20438;-55
2023/07/07 00:28:27;;;;;;;6.70;4.07;;;17.30;99.90;;;;;;5091403;28;20175;-55
2023/07/07 00:30:53;;;;;;;4.27;3.87;;;17.30;99.90;;;;;;5092249;28;20172;-55
2023/07/07 00:33:18;;;;;;;4.70;3.93;;;17.30;99.90;;;;;;5092330;28;20243;-55
2023/07/07 00:35:48;;;;;;;5.77;4.33;;;17.30;99.90;;;;;;5093323;28;20607;-55
2023/07/07 00:38:14;;;;;;;3.90;3.60;;;17.20;99.90;;;;;;5094819;28;20199;-57
2023/07/07 00:40:40;;;;;;;7.10;4.30;;;17.20;99.90;;;;;;5095127;28;20548;-56
2023/07/07 00:43:17;;;;;;;6.47;5.30;;;17.20;99.90;;;;;;5093826;28;20171;-51
2023/07/07 00:45:43;;;;;;;5.47;4.20;;;17.10;99.90;;;;;;5095836;28;20172;-52
2023/07/07 00:48:12;;;;;;;5.13;4.50;;;17.10;99.90;;;;;;5095893;28;20469;-57
2023/07/07 00:50:48;;;;;;;4.67;4.27;;;17.00;99.90;;;;;;5094962;28;20524;-56
2023/07/07 00:53:14;;;;;;;7.03;5.60;;;17.00;99.90;;;;;;5095928;28;20199;-50
2023/07/07 00:55:51;;;;;;;5.60;5.10;;;17.00;99.90;;;;;;5095869;28;20581;-55
2023/07/07 00:58:21;;;;;;;6.60;5.43;;;17.00;99.90;;;;;;5095176;28;20205;-57
2023/07/07 01:00:54;;;;;;;6.13;5.63;;;16.90;99.90;;;;;;5094124;28;20562;-54
2023/07/07 01:03:26;;;;;;;5.10;4.67;;;16.90;99.90;;;;;;5094770;28;20434;-56
2023/07/07 01:05:56;;;;;;;5.17;4.67;;;16.90;99.90;;;;;;5095977;28;20164;-56
2023/07/07 01:08:22;;;;;;;7.73;4.90;;;16.90;99.90;;;;;;5095133;28;20172;-55
2023/07/07 01:10:48;;;;;;;5.90;4.73;;;16.90;99.90;;;;;;5096190;28;20168;-54
2023/07/07 01:13:14;;;;;;;5.40;4.90;;;16.90;99.90;;;;;;5094305;28;20540;-56
2023/07/07 01:16:01;;;;;;;8.17;5.10;;;16.80;99.90;;;;;;5092512;28;20176;-52
2023/07/07 01:18:53;;;;;;;4.67;4.23;;;16.80;99.90;;;;;;5093269;28;20188;-53
2023/07/07 01:21:29;;;;;;;5.47;4.70;;;16.80;99.90;;;;;;5092996;28;20560;-54
2023/07/07 01:24:10;;;;;;;7.73;5.17;;;16.80;99.90;;;;;;5093703;28;20554;-52
2023/07/07 01:27:09;;;;;;;8.47;5.27;;;16.70;99.90;;;;;;5093487;28;20171;-54
2023/07/07 01:29:41;;;;;;;5.40;4.90;;;16.70;99.90;;;;;;5094377;28;20222;-56
2023/07/07 01:32:14;;;;;;;5.93;5.40;;;16.70;99.90;;;;;;5094728;28;20243;-55
2023/07/07 01:34:40;;;;;;;8.87;5.13;;;16.60;99.90;;;;;;5095207;28;20212;-57
2023/07/07 01:37:06;;;;;;;5.73;4.53;;;16.60;99.90;;;;;;5094801;28;20237;-57
2023/07/07 01:39:32;;;;;;;4.73;4.33;;;16.60;99.90;;;;;;5094295;28;20203;-53
2023/07/07 01:42:15;;;;;;;5.57;4.13;;;16.50;99.90;;;;;;5094057;28;20164;-53
2023/07/07 01:45:12;;;;;;;6.57;5.17;;;16.50;99.90;;;;;;5094657;28;20163;-58
2023/07/07 01:47:38;;;;;;;4.90;4.50;;;16.40;99.90;;;;;;5092790;28;20179;-57
2023/07/07 01:50:06;;;;;;;5.90;5.00;;;16.40;99.90;;;;;;5094141;28;20233;-52
2023/07/07 01:52:48;;;;;;;8.50;7.70;;;16.40;99.90;;;;;;5094467;28;20183;-55
2023/07/07 01:55:37;;;;;;;7.50;6.83;;;16.30;99.90;;;;;;5093885;28;20167;-50
2023/07/07 01:58:06;;;;;;;9.23;5.57;;;16.30;99.90;;;;;;5078205;28;20184;-56
2023/07/07 02:00:32;;;;;;;5.03;4.53;;;16.20;99.90;;;;;;5092692;28;20172;-53
2023/07/07 02:02:59;;;;;;;6.40;4.63;;;16.20;99.90;;;;;;5093696;28;20187;-56
2023/07/07 02:05:26;;;;;;;5.60;5.00;;;16.10;99.90;;;;;;5094622;28;20430;-54
2023/07/07 02:07:52;;;;;;;6.20;5.20;;;16.10;99.90;;;;;;5093667;28;20176;-55
2023/07/07 02:10:18;;;;;;;11.77;10.57;;;16.00;99.90;;;;;;5093437;28;20178;-53
2023/07/07 02:12:43;;;;;;;10.00;9.27;;;16.10;99.90;;;;;;5095515;28;20225;-57
2023/07/07 02:15:09;;;;;;;8.83;7.93;;;16.10;99.90;;;;;;5093087;28;20168;-57
2023/07/07 02:17:34;;;;;;;7.63;5.77;;;16.10;99.90;;;;;;5093602;28;20195;-57
2023/07/07 02:20:00;;;;;;;11.13;10.23;;;16.10;99.90;;;;;;5093531;28;20204;-57
2023/07/07 02:22:27;;;;;;;5.97;5.43;;;16.10;99.90;;;;;;5092993;28;20192;-54
2023/07/07 02:24:52;;;;;;;7.37;5.93;;;16.10;99.90;;;;;;5094099;28;20191;-52
2023/07/07 02:27:19;;;;;;;5.50;5.00;;;16.10;99.90;;;;;;5092878;28;20164;-55
2023/07/07 02:29:44;;;;;;;5.17;4.43;;;16.10;99.90;;;;;;5094275;28;20206;-51
2023/07/07 02:32:10;;;;;;;6.60;5.00;;;16.10;99.90;;;;;;5093492;28;20601;-51
2023/07/07 02:34:36;;;;;;;6.90;4.90;;;16.10;99.90;;;;;;5095001;28;20172;-49
2023/07/07 02:37:02;;;;;;;6.40;5.80;;;16.00;99.90;;;;;;5094914;28;20179;-52
2023/07/07 02:39:28;;;;;;;7.07;5.87;;;16.00;99.90;;;;;;5094744;28;20250;-53
2023/07/07 02:41:54;;;;;;;7.83;7.17;;;16.00;99.90;;;;;;5094433;28;20164;-53
2023/07/07 02:44:20;;;;;;;9.27;8.33;;;16.00;99.90;;;;;;5095396;28;20164;-51
2023/07/07 02:46:46;;;;;;;12.60;11.70;;;15.90;99.90;;;;;;5093192;28;20555;-53
2023/07/07 02:49:11;;;;;;;8.70;8.10;;;15.90;99.90;;;;;;5093670;28;20325;-53
2023/07/07 02:51:37;;;;;;;10.10;9.20;;;15.80;99.90;;;;;;5093913;28;20517;-54
2023/07/07 02:54:03;;;;;;;10.30;9.40;;;15.80;99.90;;;;;;5094272;28;20485;-55
2023/07/07 02:56:29;;;;;;;5.67;5.27;;;15.80;99.90;;;;;;5095662;28;20258;-53
2023/07/07 02:58:54;;;;;;;8.00;7.20;;;15.80;99.90;;;;;;5093982;28;20368;-51
2023/07/07 03:01:23;;;;;;;6.67;6.17;;;15.80;99.90;;;;;;5095182;28;20250;-53
2023/07/07 03:03:51;;;;;;;6.00;5.30;;;15.70;99.90;;;;;;5093676;28;20175;-55
2023/07/07 03:06:20;;;;;;;6.47;5.87;;;15.60;99.90;;;;;;5094999;28;20233;-53
2023/07/07 03:08:46;;;;;;;4.80;4.40;;;15.60;99.90;;;;;;5094419;28;20191;-56
2023/07/07 03:11:15;;;;;;;6.73;5.80;;;15.60;99.90;;;;;;5096016;28;20281;-50
2023/07/07 03:13:40;;;;;;;5.20;4.70;;;15.60;99.90;;;;;;5093906;28;20172;-51
2023/07/07 03:16:08;;;;;;;5.13;4.40;;;15.60;99.90;;;;;;5092937;28;20490;-54
2023/07/07 03:18:34;;;;;;;6.77;4.80;;;15.60;99.90;;;;;;5091596;28;20253;-53
2023/07/07 03:20:59;;;;;;;5.57;4.43;;;15.60;99.90;;;;;;5092990;28;20168;-55
2023/07/07 03:23:25;;;;;;;5.47;4.97;;;15.60;99.90;;;;;;5090977;28;20227;-53
2023/07/07 03:25:51;;;;;;;6.57;4.60;;;15.60;99.90;;;;;;5094757;28;20163;-53
2023/07/07 03:28:16;;;;;;;6.37;4.40;;;15.50;99.90;;;;;;5093506;28;20411;-57
2023/07/07 03:30:42;;;;;;;5.37;4.80;;;15.60;99.90;;;;;;5095715;28;20607;-54
2023/07/07 03:33:08;;;;;;;11.13;5.23;;;15.50;99.90;;;;;;5093205;28;20227;-53
2023/07/07 03:35:33;;;;;;;7.23;5.40;;;15.50;99.90;;;;;;5093855;28;20164;-54
2023/07/07 03:37:59;;;;;;;8.67;4.70;;;15.50;99.90;;;;;;5094099;28;20237;-54
2023/07/07 03:40:25;;;;;;;6.77;5.00;;;15.50;99.90;;;;;;5095157;28;20326;-52
2023/07/07 03:42:50;;;;;;;8.30;6.50;;;15.50;99.90;;;;;;5095570;28;20585;-52
2023/07/07 03:45:16;;;;;;;8.20;6.53;;;15.50;99.90;;;;;;5094405;28;20168;-55
2023/07/07 03:47:44;;;;;;;11.13;6.23;;;15.50;99.90;;;;;;5095383;28;20192;-56
2023/07/07 03:50:10;;;;;;;6.97;5.57;;;15.40;99.90;;;;;;5095589;28;20164;-54
2023/07/07 03:52:35;;;;;;;8.83;5.63;;;15.40;99.90;;;;;;5093615;28;20459;-54
2023/07/07 03:55:02;;;;;;;6.77;6.07;;;15.40;99.90;;;;;;5093305;28;20438;-57
2023/07/07 03:57:29;;;;;;;6.13;5.47;;;15.40;99.90;;;;;;5092897;28;20172;-53
2023/07/07 03:59:54;;;;;;;6.10;5.60;;;15.40;99.90;;;;;;5092443;28;20204;-53
2023/07/07 04:02:20;;;;;;;8.03;4.90;;;15.40;99.90;;;;;;5092717;28;20176;-53
2023/07/07 04:04:46;;;;;;;5.50;4.83;;;15.40;99.90;;;;;;5092944;28;20172;-53
2023/07/07 04:07:12;;;;;;;5.80;4.90;;;15.40;99.90;;;;;;5096354;28;20168;-53
2023/07/07 04:09:37;;;;;;;6.80;5.10;;;15.40;99.90;;;;;;5096479;28;20172;-53
2023/07/07 04:12:08;;;;;;;6.57;5.57;;;15.40;99.90;;;;;;5096809;28;20176;-52
2023/07/07 04:14:34;;;;;;;5.97;5.47;;;15.40;99.90;;;;;;5097581;28;20503;-52
2023/07/07 04:16:59;;;;;;;6.03;5.50;;;15.40;99.90;;;;;;5095510;28;20552;-51
2023/07/07 04:19:25;;;;;;;8.17;5.53;;;15.50;99.90;;;;;;5095001;28;20250;-52
2023/07/07 04:21:51;;;;;;;6.17;5.57;;;15.50;99.90;;;;;;5096608;28;20164;-54
2023/07/07 04:24:20;;;;;;;6.00;5.30;;;15.50;99.90;;;;;;5096647;28;20203;-52
2023/07/07 04:26:47;;;;;;;9.43;5.90;;;15.50;99.90;;;;;;5094557;28;20184;-57
2023/07/07 04:29:14;;;;;;;8.67;5.23;;;15.50;99.90;;;;;;5095266;28;20182;-54
2023/07/07 04:31:45;;;;;;;6.33;5.70;;;15.50;99.90;;;;;;5094662;28;20224;-51
2023/07/07 04:34:15;;;;;;;7.77;5.00;;;15.50;99.90;;;;;;5095228;28;20334;-53
2023/07/07 04:36:40;;;;;;;5.67;5.07;;;15.50;99.90;;;;;;5094304;28;20179;-56
2023/07/07 04:39:07;;;;;;;5.90;5.27;;;15.50;99.90;;;;;;5091599;28;20470;-53
2023/07/07 04:41:32;;;;;;;6.47;5.20;;;15.60;99.90;;;;;;5092247;28;20179;-55
2023/07/07 04:44:00;;;;;;;6.17;5.40;;;15.60;99.90;;;;;;5093870;28;20168;-53
2023/07/07 04:46:28;;;;;;;8.83;5.33;;;15.60;99.90;;;;;;5097831;28;20191;-57
2023/07/07 04:48:54;;;;;;;6.63;5.13;;;15.60;99.90;;;;;;5097262;28;20182;-57
2023/07/07 04:51:19;;;;;;;6.43;5.10;;;15.60;99.90;;;;;;5097405;28;20172;-52
2023/07/07 04:53:46;;;;;;;5.27;4.77;;;15.60;99.90;;;;;;5097557;28;20172;-55
2023/07/07 04:56:15;;;;;;;6.00;4.67;;;15.60;99.90;;;;;;5098249;28;20168;-53
2023/07/07 04:58:42;;;;;;;6.07;5.40;;;15.60;99.90;;;;;;5098500;28;20195;-54
2023/07/07 05:01:36;;;;;;;8.63;5.40;;;15.60;99.90;;;;;;5096928;28;20172;-54
2023/07/07 05:04:03;;;;;;;5.20;4.70;;;15.70;99.90;;;;;;5093495;28;20180;-52
2023/07/07 05:06:31;;;;;;;10.73;5.93;;;15.70;99.90;;;;;;5096414;28;20164;-54
2023/07/07 05:08:57;;;;;;;12.40;5.10;;;15.70;99.90;;;;;;5096254;28;20172;-54
2023/07/07 05:11:25;;;;;;;7.27;6.00;;;15.70;99.90;;;;;;5096235;28;20179;-55
2023/07/07 05:13:51;;;;;;;5.37;4.87;;;15.80;99.90;;;;;;5095743;28;20537;-56
2023/07/07 05:16:21;;;;;;;6.70;5.47;;;15.80;99.90;;;;;;5095801;28;20198;-54
2023/07/07 05:18:47;;;;;;;6.70;5.80;;;15.80;99.90;;;;;;5097052;28;20207;-51
2023/07/07 05:21:14;;;;;;;8.07;6.80;;;15.80;99.90;;;;;;5097390;28;20168;-56
2023/07/07 05:23:40;;;;;;;9.20;7.97;;;15.90;99.90;;;;;;5096664;28;20533;-54
2023/07/07 05:26:06;;;;;;;9.37;8.57;;;15.90;99.90;;;;;;5094746;28;20175;-54
2023/07/07 05:28:32;;;;;;;7.57;6.97;;;15.90;99.90;;;;;;5094286;28;20165;-54
2023/07/07 05:30:58;;;;;;;9.10;8.30;;;15.90;99.90;;;;;;5095786;28;20176;-55
2023/07/07 05:33:23;;;;;;;9.83;8.80;;;15.90;99.90;;;;;;5093648;28;20238;-53
2023/07/07 05:35:54;;;;;;;9.00;8.23;;;15.90;99.90;;;;;;5093617;28;20234;-52
2023/07/07 05:38:22;;;;;;;8.23;6.87;;;15.90;99.90;;;;;;5093933;28;20165;-56
2023/07/07 05:40:50;;;;;;;7.60;6.73;;;15.90;99.90;;;;;;5095592;28;20163;-54
2023/07/07 05:43:17;;;;;;;7.33;6.63;;;15.90;99.90;;;;;;5095669;28;20572;-54
2023/07/07 05:45:43;;;;;;;8.13;6.90;;;15.90;99.90;;;;;;5095102;28;20176;-51
2023/07/07 05:48:10;;;;;;;7.23;5.83;;;16.00;99.90;;;;;;5096465;28;20178;-54
2023/07/07 05:50:38;;;;;;;7.03;6.10;;;16.00;99.90;;;;;;5096533;28;20728;-55
2023/07/07 05:53:04;;;;;;;5.93;5.33;;;16.00;99.90;;;;;;5096147;28;20201;-55
2023/07/07 05:55:33;;;;;;;7.40;4.43;;;16.00;99.90;;;;;;5095254;28;20168;-55
2023/07/07 05:58:00;;;;;;;5.80;3.63;;;16.10;99.90;;;;;;5094727;28;20184;-54
2023/07/07 06:00:27;;;;;;;5.83;4.27;;;16.10;99.90;;;;;;5093134;28;20208;-51
2023/07/07 06:02:53;;;;;;;4.33;3.43;;;16.10;99.90;;;;;;5092556;28;20472;-52
2023/07/07 06:05:20;;;;;;;5.23;3.83;;;16.20;99.90;;;;;;5091222;28;20160;-52
2023/07/07 06:07:46;;;;;;;5.13;3.90;;;16.20;99.90;;;;;;5091462;28;20169;-56
2023/07/07 06:10:12;;;;;;;5.63;4.10;;;16.20;99.90;;;;;;5091147;28;20180;-56
2023/07/07 06:12:38;;;;;;;5.53;4.03;;;16.30;99.90;;;;;;5091825;28;20164;-55
2023/07/07 06:15:05;;;;;;;4.50;3.83;;;16.30;99.90;;;;;;5091398;28;20463;-54
2023/07/07 06:17:31;;;;;;;7.40;3.90;;;16.30;99.90;;;;;;5091793;28;20187;-54
2023/07/07 06:19:56;;;;;;;5.20;3.80;;;16.40;99.90;;;;;;5091555;28;20195;-54
2023/07/07 06:22:22;;;;;;;9.17;4.03;;;16.40;99.90;;;;;;5091952;28;20160;-57
2023/07/07 06:24:47;;;;;;;7.80;4.03;;;16.40;99.90;;;;;;5091688;28;20168;-54
2023/07/07 06:27:13;;;;;;;9.20;5.13;;;16.40;99.90;;;;;;5091574;28;20172;-55
2023/07/07 06:29:38;;;;;;;4.80;3.60;;;16.50;99.90;;;;;;5091615;28;20174;-55
2023/07/07 06:32:04;;;;;;;6.37;4.03;;;16.50;99.90;;;;;;5092061;28;20234;-56
2023/07/07 06:34:30;;;;;;;8.63;4.60;;;16.60;99.90;;;;;;5091119;28;20286;-57
2023/07/07 06:36:55;;;;;;;6.87;4.47;;;16.60;99.90;;;;;;5091093;28;20284;-54
2023/07/07 06:39:21;;;;;;;7.37;4.87;;;16.60;99.90;;;;;;5092562;28;20183;-55
2023/07/07 06:41:46;;;;;;;5.00;4.17;;;16.60;99.90;;;;;;5093274;28;20164;-53
2023/07/07 06:44:12;;;;;;;5.93;4.23;;;16.70;99.90;;;;;;5094364;28;20214;-53
2023/07/07 06:46:38;;;;;;;4.63;3.90;;;16.70;99.90;;;;;;5093757;28;20271;-55
2023/07/07 06:49:04;;;;;;;6.30;4.20;;;16.70;99.90;;;;;;5094112;28;20276;-56
2023/07/07 06:51:30;;;;;;;8.90;5.10;;;16.80;99.90;;;;;;5093827;28;20172;-54
2023/07/07 06:53:57;;;;;;;5.13;4.13;;;16.80;99.90;;;;;;5093033;28;20183;-56
2023/07/07 06:56:22;;;;;;;7.93;4.67;;;16.80;99.90;;;;;;5093332;28;20176;-54
2023/07/07 06:58:48;;;;;;;6.30;5.20;;;16.90;99.90;;;;;;5091088;28;20264;-53
2023/07/07 07:01:14;;;;;;;4.53;4.13;;;16.90;99.90;;;;;;5091909;28;20203;-53
2023/07/07 07:03:42;;;;;;;8.00;4.37;;;16.90;99.90;;;;;;5090913;28;20736;-54
2023/07/07 07:06:08;;;;;;;4.97;3.93;;;16.90;99.90;;;;;;5091851;28;20156;-55
2023/07/07 07:08:33;;;;;;;9.10;4.27;;;16.90;99.90;;;;;;5091399;28;20168;-55
2023/07/07 07:11:00;;;;;;;6.70;4.30;;;17.00;99.90;;;;;;5091093;28;20255;-54
2023/07/07 07:13:25;;;;;;;8.33;4.33;;;17.10;99.90;;;;;;5093522;28;20156;-57
2023/07/07 07:15:51;;;;;;;6.87;4.00;;;17.10;99.90;;;;;;5093579;28;20183;-55
2023/07/07 07:18:17;;;;;;;10.73;4.67;;;17.10;99.90;;;;;;5094392;28;20175;-55
2023/07/07 07:20:43;;;;;;;10.17;3.73;;;17.20;99.90;;;;;;5094820;28;20290;-57
2023/07/07 07:23:09;;;;;;;5.83;3.80;;;17.30;99.90;;;;;;5095391;28;20167;-54
2023/07/07 07:25:35;;;;;;;6.60;5.27;;;17.30;99.90;;;;;;5093774;28;20165;-55
2023/07/07 07:28:00;;;;;;;8.53;3.83;;;17.40;99.90;;;;;;5091367;28;20174;-52
2023/07/07 07:30:26;;;;;;;5.03;3.97;;;17.50;99.90;;;;;;5089932;28;20477;-54
2023/07/07 07:32:51;;;;;;;6.30;4.50;;;17.40;99.90;;;;;;5091225;28;20220;-53
2023/07/07 07:35:17;;;;;;;4.67;3.83;;;17.50;99.90;;;;;;5090771;28;20195;-53
2023/07/07 07:37:43;;;;;;;6.57;4.03;;;17.50;99.90;;;;;;5089498;28;20248;-57
2023/07/07 07:40:09;;;;;;;5.67;4.07;;;17.50;99.90;;;;;;5089546;28;20223;-55
2023/07/07 07:42:34;;;;;;;3.67;2.80;;;17.50;99.90;;;;;;5089716;28;20756;-52
2023/07/07 07:45:00;;;;;;;9.70;4.30;;;17.40;99.90;;;;;;5090804;28;20180;-56
2023/07/07 07:47:25;;;;;;;8.07;4.13;;;17.60;99.90;;;;;;5091065;28;20172;-55
2023/07/07 07:49:52;;;;;;;5.17;4.30;;;17.60;99.90;;;;;;5089579;28;20176;-55
2023/07/07 07:52:18;;;;;;;7.23;4.47;;;17.60;99.90;;;;;;5089012;28;20545;-57
2023/07/07 07:54:44;;;;;;;8.23;4.50;;;17.70;99.90;;;;;;5088833;28;20180;-54
2023/07/07 07:57:10;;;;;;;5.37;4.37;;;17.70;99.90;;;;;;5088416;28;20226;-57
2023/07/07 07:59:36;;;;;;;4.27;3.90;;;17.80;99.90;;;;;;5089036;28;20200;-56
2023/07/07 08:02:02;;;;;;;5.73;4.80;;;17.80;99.90;;;;;;5091627;28;20191;-58
2023/07/07 08:04:28;;;;;;;7.43;5.40;;;17.90;99.90;;;;;;5090898;28;20226;-57
2023/07/07 08:06:54;;;;;;;4.57;3.97;;;18.00;99.90;;;;;;5091391;28;20196;-54
2023/07/07 08:09:20;;;;;;;8.57;5.30;;;18.10;99.90;;;;;;5091608;28;20551;-53
2023/07/07 08:11:48;;;;;;;5.57;4.63;;;18.10;99.90;;;;;;5095481;28;20176;-56
2023/07/07 08:14:17;;;;;;;8.10;6.10;;;18.10;99.90;;;;;;5096204;28;20611;-56
2023/07/07 08:16:42;;;;;;;8.13;6.13;;;18.20;99.90;;;;;;5096739;28;20182;-56
2023/07/07 08:19:08;;;;;;;8.73;7.83;;;18.20;99.90;;;;;;5097155;28;20200;-56
2023/07/07 08:21:34;;;;;;;10.27;9.27;;;18.30;99.90;;;;;;5094855;28;20168;-50
2023/07/07 08:24:00;;;;;;;8.80;7.90;;;18.40;99.90;;;;;;5095694;28;20160;-53
2023/07/07 08:26:26;;;;;;;10.00;6.87;;;18.30;99.90;;;;;;5095280;28;20233;-54
2023/07/07 08:28:52;;;;;;;33.87;31.83;;;18.30;99.90;;;;;;5096110;28;20156;-55
2023/07/07 08:31:18;;;;;;;22.97;21.67;;;18.60;99.90;;;;;;5094392;28;20241;-53
2023/07/07 08:33:47;;;;;;;28.67;26.97;;;18.80;99.90;;;;;;5095133;28;20180;-56
2023/07/07 08:36:13;;;;;;;25.87;24.03;;;18.80;99.90;;;;;;5095173;28;20214;-55
2023/07/07 08:38:38;;;;;;;26.30;24.90;;;18.90;99.90;;;;;;5095755;28;20418;-51
2023/07/07 08:41:04;;;;;;;36.93;34.83;;;19.00;99.90;;;;;;5097053;28;20233;-54
2023/07/07 08:43:30;;;;;;;11.37;10.53;;;18.90;99.90;;;;;;5095869;28;20164;-56
2023/07/07 08:46:13;;;;;;;9.93;6.57;;;19.20;99.90;;;;;;5094963;28;20234;-53
2023/07/07 08:49:06;;;;;;;6.23;5.70;;;19.20;99.90;;;;;;5093710;28;20172;-58
2023/07/07 08:51:38;;;;;;;6.80;6.10;;;19.20;99.90;;;;;;5093963;28;20179;-58
2023/07/07 08:54:25;;;;;;;7.80;7.00;;;19.20;99.90;;;;;;5092984;28;20168;-58
2023/07/07 08:57:11;;;;;;;8.33;6.87;;;19.20;99.90;;;;;;5094655;28;20289;-59
2023/07/07 09:00:09;;;;;;;5.30;4.83;;;19.30;99.90;;;;;;5095179;28;20198;-57
2023/07/07 09:02:56;;;;;;;5.40;5.00;;;19.40;99.90;;;;;;5090569;28;20181;-59
2023/07/07 09:05:48;;;;;;;4.97;3.53;;;19.30;99.90;;;;;;5091841;28;20213;-56
2023/07/07 09:08:40;;;;;;;4.40;4.00;;;19.60;99.90;;;;;;5090571;28;20160;-59
2023/07/07 09:11:19;;;;;;;7.40;3.97;;;19.80;99.90;;;;;;5091515;28;20249;-57
2023/07/07 09:13:49;;;;;;;5.43;5.03;;;20.00;99.90;;;;;;5090898;28;20202;-58
2023/07/07 09:16:14;;;;;;;6.97;6.40;;;19.90;99.90;;;;;;5090179;28;20212;-59
2023/07/07 09:19:11;;;;;;;8.27;7.30;;;19.80;99.90;;;;;;5091875;28;20235;-57
2023/07/07 09:21:42;;;;;;;7.80;7.20;;;20.00;99.90;;;;;;5091936;28;20168;-57
2023/07/07 09:24:32;;;;;;;7.77;7.17;;;19.80;99.90;;;;;;5093200;28;20671;-58
2023/07/07 09:27:04;;;;;;;40.40;38.10;;;19.70;99.90;;;;;;5088268;28;20566;-59
2023/07/07 09:29:30;;;;;;;83.27;78.67;;;19.60;99.90;;;;;;5094186;28;20168;-57
2023/07/07 09:31:59;;;;;;;9.17;8.40;;;19.60;99.90;;;;;;5095387;28;20227;-55
2023/07/07 09:34:24;;;;;;;6.93;6.43;;;19.70;99.90;;;;;;5094850;28;20191;-59
2023/07/07 09:37:17;;;;;;;7.50;5.53;;;19.70;99.90;;;;;;5094851;28;20176;-52
2023/07/07 09:40:17;;;;;;;5.63;5.23;;;20.00;99.90;;;;;;5093479;28;20204;-53
2023/07/07 09:43:26;;;;;;;20.83;19.67;;;20.00;99.90;;;;;;5093318;28;20263;-53
2023/07/07 09:46:14;;;;;;;35.43;33.50;;;20.20;99.90;;;;;;5094155;28;20211;-56
2023/07/07 09:49:04;;;;;;;10.87;10.00;;;20.40;99.90;;;;;;5092201;28;20449;-55
2023/07/07 09:51:57;;;;;;;6.83;6.33;;;20.50;99.90;;;;;;5093341;28;20168;-57
2023/07/07 09:54:23;;;;;;;3.83;2.90;;;20.60;99.90;;;;;;5093629;28;20737;-55
2023/07/07 09:57:02;;;;;;;3.30;2.43;;;20.60;99.90;;;;;;5091641;28;20216;-55
2023/07/07 09:59:39;;;;;;;4.07;2.50;;;20.70;99.90;;;;;;5092654;28;20694;-56
2023/07/07 10:02:18;;;;;;;6.47;6.00;;;20.60;99.90;;;;;;5091378;28;20554;-57
2023/07/07 10:04:48;;;;;;;10.73;9.93;;;20.40;99.90;;;;;;5092529;28;20187;-55
2023/07/07 10:07:16;;;;;;;4.43;3.90;;;20.50;99.90;;;;;;5075784;28;20168;-57
2023/07/07 10:09:43;;;;;;;2.87;2.60;;;20.60;99.90;;;;;;5092265;28;20172;-58
2023/07/07 10:12:14;;;;;;;6.87;4.50;;;20.60;99.90;;;;;;5092035;28;20525;-56
2023/07/07 10:14:41;;;;;;;6.47;5.67;;;20.70;99.90;;;;;;5091843;28;20186;-57
2023/07/07 10:17:19;;;;;;;6.70;6.10;;;20.80;99.90;;;;;;5091702;28;20212;-55
2023/07/07 10:19:52;;;;;;;5.07;4.43;;;20.70;99.90;;;;;;5092917;28;20210;-52
2023/07/07 10:22:19;;;;;;;3.00;2.03;;;20.90;99.90;;;;;;5093339;28;20653;-51
2023/07/07 10:24:46;;;;;;;2.93;1.83;;;20.90;99.90;;;;;;5093014;28;20556;-56
2023/07/07 10:27:16;;;;;;;2.90;1.60;;;20.90;99.90;;;;;;5091581;28;20168;-57
2023/07/07 10:29:42;;;;;;;3.23;1.70;;;20.80;99.90;;;;;;5093965;28;20489;-51
2023/07/07 10:32:14;;;;;;;3.40;1.97;;;20.90;99.90;;;;;;5092811;28;20619;-57
2023/07/07 10:34:45;;;;;;;5.67;1.93;;;20.90;99.90;;;;;;5093970;28;20216;-54
2023/07/07 10:37:38;;;;;;;3.47;1.70;;;20.90;99.90;;;;;;5092636;28;20204;-56
2023/07/07 10:40:05;;;;;;;2.93;1.60;;;20.90;99.90;;;;;;5091229;28;20293;-52
2023/07/07 10:42:32;;;;;;;3.03;1.80;;;20.90;99.90;;;;;;5091251;28;20180;-52
2023/07/07 10:45:00;;;;;;;6.10;1.93;;;21.20;99.90;;;;;;5090996;28;20186;-55
2023/07/07 10:47:35;;;;;;;4.40;1.87;;;21.30;99.90;;;;;;5090289;28;20183;-56
2023/07/07 10:50:03;;;;;;;3.00;2.77;;;21.40;99.90;;;;;;5091452;28;20182;-54
2023/07/07 10:52:49;;;;;;;6.20;3.10;;;21.30;99.90;;;;;;5091747;28;20287;-55
2023/07/07 10:55:26;;;;;;;4.60;3.13;;;21.30;99.90;;;;;;5093271;28;20178;-57
2023/07/07 10:58:10;;;;;;;3.30;2.10;;;21.40;99.90;;;;;;5093235;28;20172;-55
2023/07/07 11:01:13;;;;;;;2.87;2.50;;;21.50;99.90;;;;;;5092764;28;20211;-57
2023/07/07 11:04:04;;;;;;;3.77;2.20;;;21.60;99.90;;;;;;5093315;28;20579;-52
2023/07/07 11:06:41;;;;;;;4.13;2.00;;;21.80;99.90;;;;;;5092772;28;20233;-53
2023/07/07 11:09:53;;;;;;;2.50;1.83;;;21.80;99.90;;;;;;5093341;28;20215;-54
2023/07/07 11:12:28;;;;;;;2.83;1.80;;;21.80;99.90;;;;;;5074762;28;20183;-55
2023/07/07 11:15:17;;;;;;;3.87;1.87;;;21.70;99.90;;;;;;5092231;28;20204;-56
2023/07/07 11:17:52;;;;;;;4.30;1.93;;;21.60;99.90;;;;;;5093446;28;20187;-54
2023/07/07 11:20:33;;;;;;;1.53;1.40;;;21.70;99.90;;;;;;5092980;28;20265;-55
2023/07/07 11:23:10;;;;;;;3.77;1.70;;;21.90;99.90;;;;;;5094544;28;20160;-52
2023/07/07 11:26:01;;;;;;;2.17;1.57;;;21.80;99.90;;;;;;5092908;28;20168;-54
2023/07/07 11:29:15;;;;;;;2.73;1.60;;;21.80;99.90;;;;;;5092154;28;20160;-52
2023/07/07 11:31:41;;;;;;;3.10;2.00;;;21.90;99.90;;;;;;5086767;28;20215;-57
2023/07/07 11:34:15;;;;;;;3.87;1.87;;;21.90;99.90;;;;;;5093211;28;20578;-57
2023/07/07 11:36:47;;;;;;;3.23;2.57;;;21.80;99.90;;;;;;5092045;28;20160;-54
2023/07/07 11:39:31;;;;;;;4.57;4.17;;;22.10;99.90;;;;;;5091916;28;20231;-55
2023/07/07 11:42:18;;;;;;;3.80;3.50;;;22.10;99.90;;;;;;5090542;28;20168;-52
2023/07/07 11:44:59;;;;;;;6.73;3.63;;;22.10;99.90;;;;;;5092150;28;20171;-55
2023/07/07 11:47:39;;;;;;;3.70;3.30;;;22.10;99.90;;;;;;5096533;28;20167;-54
2023/07/07 11:50:35;;;;;;;4.97;4.53;;;22.20;99.90;;;;;;5095605;28;20172;-55
2023/07/07 11:53:20;;;;;;;5.60;5.20;;;22.30;99.90;;;;;;5093822;28;20175;-57
2023/07/07 11:56:09;;;;;;;5.93;5.53;;;22.40;99.90;;;;;;5093834;28;20278;-57
2023/07/07 11:58:44;;;;;;;18.53;17.50;;;22.50;99.90;;;;;;5082743;28;20176;-54
2023/07/07 12:01:23;;;;;;;15.87;14.87;;;22.50;99.90;;;;;;5091869;28;20164;-57
2023/07/07 12:04:07;;;;;;;13.23;12.50;;;22.60;99.90;;;;;;5082611;28;20211;-53
2023/07/07 12:06:51;;;;;;;11.63;10.93;;;22.70;99.90;;;;;;5081178;28;20176;-57
2023/07/07 12:09:20;;;;;;;13.60;12.70;;;22.80;99.90;;;;;;5082816;28;20754;-54
2023/07/07 12:12:16;;;;;;;14.03;13.23;;;22.90;99.90;;;;;;5083974;28;20197;-53
2023/07/07 12:14:58;;;;;;;17.10;16.13;;;23.00;99.90;;;;;;5082213;28;20242;-53
2023/07/07 12:17:29;;;;;;;20.53;19.03;;;23.00;99.90;;;;;;5083618;28;20187;-57
2023/07/07 12:20:04;;;;;;;20.53;19.33;;;23.10;99.90;;;;;;5084960;28;20208;-57
2023/07/07 12:22:37;;;;;;;22.27;20.97;;;23.20;99.90;;;;;;5087570;28;20195;-55
2023/07/07 12:25:16;;;;;;;17.17;16.17;;;23.40;99.90;;;;;;5086131;28;20164;-55
2023/07/07 12:27:45;;;;;;;21.43;20.33;;;23.50;99.90;;;;;;5084938;28;20210;-54
2023/07/07 12:30:19;;;;;;;23.57;22.33;;;23.60;99.90;;;;;;5086490;28;20436;-57
2023/07/07 12:32:45;;;;;;;22.53;21.23;;;23.70;99.90;;;;;;5086532;28;20219;-56
2023/07/07 12:35:26;;;;;;;13.27;12.47;;;23.80;99.90;;;;;;5088057;28;20179;-52
2023/07/07 12:37:55;;;;;;;8.03;7.53;;;23.90;99.90;;;;;;5087726;28;20164;-55
2023/07/07 12:40:21;;;;;;;7.30;6.80;;;24.00;99.90;;;;;;5093864;28;20231;-57
2023/07/07 12:43:06;;;;;;;9.37;8.87;;;23.90;99.90;;;;;;5094159;28;20171;-57
2023/07/07 12:45:32;;;;;;;9.47;8.87;;;24.10;99.90;;;;;;5095227;28;20166;-56
2023/07/07 12:48:18;;;;;;;6.20;5.70;;;24.20;99.90;;;;;;5092946;28;20176;-53
2023/07/07 12:50:45;;;;;;;4.63;4.27;;;24.40;99.90;;;;;;5092489;28;20179;-56
2023/07/07 12:53:34;;;;;;;7.13;6.63;;;24.40;99.90;;;;;;5091364;28;20222;-58
2023/07/07 12:56:21;;;;;;;14.10;13.33;;;24.50;99.90;;;;;;5092812;28;20160;-54
2023/07/07 12:58:48;;;;;;;8.07;7.47;;;24.70;99.90;;;;;;5092186;28;20203;-53
2023/07/07 13:01:14;;;;;;;9.40;8.77;;;24.80;99.90;;;;;;5093705;28;20302;-56
2023/07/07 13:03:59;;;;;;;8.20;7.70;;;24.90;99.90;;;;;;5093637;28;20295;-57
2023/07/07 13:06:51;;;;;;;10.10;9.50;;;25.00;99.90;;;;;;5094426;28;20258;-57